sensor_id;sensor_type;location;lat;lon;timestamp;temperature;humidity
84294;DHT22;74463;51.182;3.210;2023-12-07T00:01:06;3.20;83.30
84294;DHT22;74463;51.182;3.210;2023-12-07T00:03:34;2.90;84.00
84294;DHT22;74463;51.182;3.210;2023-12-07T00:06:01;2.60;85.90
84294;DHT22;74463;51.182;3.210;2023-12-07T00:08:28;2.60;87.40
84294;DHT22;74463;51.182;3.210;2023-12-07T00:10:55;2.40;86.70
84294;DHT22;74463;51.182;3.210;2023-12-07T00:13:22;2.30;87.60
84294;DHT22;74463;51.182;3.210;2023-12-07T00:15:49;2.20;88.30
84294;DHT22;74463;51.182;3.210;2023-12-07T00:18:16;2.10;88.20
84294;DHT22;74463;51.182;3.210;2023-12-07T00:20:44;2.10;88.60
84294;DHT22;74463;51.182;3.210;2023-12-07T00:23:11;2.00;88.00
84294;DHT22;74463;51.182;3.210;2023-12-07T00:25:38;2.10;88.10
84294;DHT22;74463;51.182;3.210;2023-12-07T00:28:05;2.00;87.90
84294;DHT22;74463;51.182;3.210;2023-12-07T00:30:32;2.30;88.70
84294;DHT22;74463;51.182;3.210;2023-12-07T00:32:59;2.40;87.00
84294;DHT22;74463;51.182;3.210;2023-12-07T00:35:26;2.20;86.90
84294;DHT22;74463;51.182;3.210;2023-12-07T00:37:56;2.30;88.20
84294;DHT22;74463;51.182;3.210;2023-12-07T00:40:23;2.40;87.20
84294;DHT22;74463;51.182;3.210;2023-12-07T00:42:50;2.30;86.40
84294;DHT22;74463;51.182;3.210;2023-12-07T00:45:17;2.30;87.30
84294;DHT22;74463;51.182;3.210;2023-12-07T00:47:43;2.40;86.90
84294;DHT22;74463;51.182;3.210;2023-12-07T00:50:12;2.60;86.30
84294;DHT22;74463;51.182;3.210;2023-12-07T00:52:39;2.60;86.00
84294;DHT22;74463;51.182;3.210;2023-12-07T00:55:08;2.60;86.50
84294;DHT22;74463;51.182;3.210;2023-12-07T00:57:35;2.50;86.50
84294;DHT22;74463;51.182;3.210;2023-12-07T01:00:02;2.60;86.60
84294;DHT22;74463;51.182;3.210;2023-12-07T01:02:31;2.60;86.90
84294;DHT22;74463;51.182;3.210;2023-12-07T01:04:58;2.50;87.80
84294;DHT22;74463;51.182;3.210;2023-12-07T01:07:25;2.60;87.30
84294;DHT22;74463;51.182;3.210;2023-12-07T01:09:52;2.70;87.30
84294;DHT22;74463;51.182;3.210;2023-12-07T01:12:20;2.50;87.60
84294;DHT22;74463;51.182;3.210;2023-12-07T01:14:47;2.40;88.30
84294;DHT22;74463;51.182;3.210;2023-12-07T01:17:14;2.60;89.00
84294;DHT22;74463;51.182;3.210;2023-12-07T01:19:41;2.50;88.60
84294;DHT22;74463;51.182;3.210;2023-12-07T01:22:08;2.40;89.00
84294;DHT22;74463;51.182;3.210;2023-12-07T01:24:35;2.60;89.20
84294;DHT22;74463;51.182;3.210;2023-12-07T01:27:02;2.80;88.30
84294;DHT22;74463;51.182;3.210;2023-12-07T01:29:30;3.00;88.00
84294;DHT22;74463;51.182;3.210;2023-12-07T01:31:57;2.90;87.70
84294;DHT22;74463;51.182;3.210;2023-12-07T01:34:24;2.90;87.90
84294;DHT22;74463;51.182;3.210;2023-12-07T01:36:51;2.90;87.50
84294;DHT22;74463;51.182;3.210;2023-12-07T01:39:18;3.00;87.70
84294;DHT22;74463;51.182;3.210;2023-12-07T01:41:46;3.00;87.60
84294;DHT22;74463;51.182;3.210;2023-12-07T01:44:13;2.90;88.50
84294;DHT22;74463;51.182;3.210;2023-12-07T01:46:42;3.00;87.80
84294;DHT22;74463;51.182;3.210;2023-12-07T01:49:09;3.00;88.60
84294;DHT22;74463;51.182;3.210;2023-12-07T01:51:36;3.10;88.60
84294;DHT22;74463;51.182;3.210;2023-12-07T01:54:04;2.90;88.30
84294;DHT22;74463;51.182;3.210;2023-12-07T01:56:31;3.10;88.90
84294;DHT22;74463;51.182;3.210;2023-12-07T01:58:58;3.20;88.40
84294;DHT22;74463;51.182;3.210;2023-12-07T02:01:25;3.30;88.50
84294;DHT22;74463;51.182;3.210;2023-12-07T02:03:53;3.20;88.20
84294;DHT22;74463;51.182;3.210;2023-12-07T02:06:20;3.20;87.90
84294;DHT22;74463;51.182;3.210;2023-12-07T02:08:47;3.00;88.90
84294;DHT22;74463;51.182;3.210;2023-12-07T02:11:14;3.10;89.10
84294;DHT22;74463;51.182;3.210;2023-12-07T02:13:41;3.20;89.20
84294;DHT22;74463;51.182;3.210;2023-12-07T02:16:13;3.20;89.10
84294;DHT22;74463;51.182;3.210;2023-12-07T02:18:46;3.20;89.10
84294;DHT22;74463;51.182;3.210;2023-12-07T02:21:21;3.30;88.70
84294;DHT22;74463;51.182;3.210;2023-12-07T02:23:51;3.20;89.10
84294;DHT22;74463;51.182;3.210;2023-12-07T02:26:20;3.10;89.70
84294;DHT22;74463;51.182;3.210;2023-12-07T02:28:48;3.10;89.70
84294;DHT22;74463;51.182;3.210;2023-12-07T02:31:15;3.10;90.00
84294;DHT22;74463;51.182;3.210;2023-12-07T02:33:42;3.20;89.70
84294;DHT22;74463;51.182;3.210;2023-12-07T02:36:10;3.30;89.50
84294;DHT22;74463;51.182;3.210;2023-12-07T02:38:37;3.40;89.40
84294;DHT22;74463;51.182;3.210;2023-12-07T02:41:06;3.60;88.50
84294;DHT22;74463;51.182;3.210;2023-12-07T02:43:34;3.40;88.90
84294;DHT22;74463;51.182;3.210;2023-12-07T02:46:02;3.50;89.30
84294;DHT22;74463;51.182;3.210;2023-12-07T02:48:29;3.50;89.40
84294;DHT22;74463;51.182;3.210;2023-12-07T02:50:56;3.60;89.20
84294;DHT22;74463;51.182;3.210;2023-12-07T02:53:23;3.70;88.90
84294;DHT22;74463;51.182;3.210;2023-12-07T02:55:50;3.80;88.20
84294;DHT22;74463;51.182;3.210;2023-12-07T02:58:17;3.60;88.60
84294;DHT22;74463;51.182;3.210;2023-12-07T03:00:44;3.60;89.50
84294;DHT22;74463;51.182;3.210;2023-12-07T03:03:12;3.60;89.70
84294;DHT22;74463;51.182;3.210;2023-12-07T03:05:39;3.70;89.80
84294;DHT22;74463;51.182;3.210;2023-12-07T03:08:06;3.70;89.20
84294;DHT22;74463;51.182;3.210;2023-12-07T03:10:33;3.70;89.60
84294;DHT22;74463;51.182;3.210;2023-12-07T03:13:00;3.90;90.10
84294;DHT22;74463;51.182;3.210;2023-12-07T03:15:27;3.90;88.70
84294;DHT22;74463;51.182;3.210;2023-12-07T03:17:54;4.00;88.90
84294;DHT22;74463;51.182;3.210;2023-12-07T03:20:22;4.10;88.10
84294;DHT22;74463;51.182;3.210;2023-12-07T03:22:49;4.00;88.00
84294;DHT22;74463;51.182;3.210;2023-12-07T03:25:16;3.80;88.90
84294;DHT22;74463;51.182;3.210;2023-12-07T03:27:43;3.60;90.10
84294;DHT22;74463;51.182;3.210;2023-12-07T03:30:10;3.60;90.40
84294;DHT22;74463;51.182;3.210;2023-12-07T03:32:36;3.70;90.30
84294;DHT22;74463;51.182;3.210;2023-12-07T03:35:04;3.70;90.30
84294;DHT22;74463;51.182;3.210;2023-12-07T03:37:32;3.60;90.60
84294;DHT22;74463;51.182;3.210;2023-12-07T03:39:59;3.60;90.70
84294;DHT22;74463;51.182;3.210;2023-12-07T03:42:26;3.70;90.60
84294;DHT22;74463;51.182;3.210;2023-12-07T03:44:53;4.00;90.30
84294;DHT22;74463;51.182;3.210;2023-12-07T03:47:20;3.90;90.00
84294;DHT22;74463;51.182;3.210;2023-12-07T03:49:47;3.80;90.40
84294;DHT22;74463;51.182;3.210;2023-12-07T03:52:14;3.90;90.40
84294;DHT22;74463;51.182;3.210;2023-12-07T03:54:42;4.00;90.20
84294;DHT22;74463;51.182;3.210;2023-12-07T03:57:09;3.90;90.10
84294;DHT22;74463;51.182;3.210;2023-12-07T03:59:36;4.10;90.10
84294;DHT22;74463;51.182;3.210;2023-12-07T04:02:03;4.20;89.50
84294;DHT22;74463;51.182;3.210;2023-12-07T04:04:30;4.20;89.70
84294;DHT22;74463;51.182;3.210;2023-12-07T04:06:57;4.10;89.60
84294;DHT22;74463;51.182;3.210;2023-12-07T04:09:25;4.10;90.10
84294;DHT22;74463;51.182;3.210;2023-12-07T04:11:53;4.30;89.90
84294;DHT22;74463;51.182;3.210;2023-12-07T04:14:20;4.20;89.60
84294;DHT22;74463;51.182;3.210;2023-12-07T04:16:47;4.10;89.70
84294;DHT22;74463;51.182;3.210;2023-12-07T04:19:14;4.20;89.70
84294;DHT22;74463;51.182;3.210;2023-12-07T04:21:41;4.00;90.20
84294;DHT22;74463;51.182;3.210;2023-12-07T04:24:08;3.90;90.60
84294;DHT22;74463;51.182;3.210;2023-12-07T04:26:35;3.70;90.70
84294;DHT22;74463;51.182;3.210;2023-12-07T04:29:03;3.90;91.00
84294;DHT22;74463;51.182;3.210;2023-12-07T04:31:30;4.00;90.50
84294;DHT22;74463;51.182;3.210;2023-12-07T04:33:57;4.00;90.30
84294;DHT22;74463;51.182;3.210;2023-12-07T04:36:25;4.00;90.50
84294;DHT22;74463;51.182;3.210;2023-12-07T04:38:52;4.10;90.50
84294;DHT22;74463;51.182;3.210;2023-12-07T04:41:19;4.10;90.20
84294;DHT22;74463;51.182;3.210;2023-12-07T04:43:46;4.10;90.20
84294;DHT22;74463;51.182;3.210;2023-12-07T04:46:14;4.00;90.20
84294;DHT22;74463;51.182;3.210;2023-12-07T04:48:41;4.10;90.20
84294;DHT22;74463;51.182;3.210;2023-12-07T04:51:08;4.10;90.20
84294;DHT22;74463;51.182;3.210;2023-12-07T04:53:35;4.10;90.40
84294;DHT22;74463;51.182;3.210;2023-12-07T04:56:02;4.10;90.20
84294;DHT22;74463;51.182;3.210;2023-12-07T04:58:29;4.20;90.10
84294;DHT22;74463;51.182;3.210;2023-12-07T05:00:55;4.20;90.00
84294;DHT22;74463;51.182;3.210;2023-12-07T05:03:24;4.10;90.10
84294;DHT22;74463;51.182;3.210;2023-12-07T05:05:51;3.90;90.50
84294;DHT22;74463;51.182;3.210;2023-12-07T05:08:17;3.90;90.80
84294;DHT22;74463;51.182;3.210;2023-12-07T05:10:45;3.90;90.60
84294;DHT22;74463;51.182;3.210;2023-12-07T05:13:12;3.90;90.80
84294;DHT22;74463;51.182;3.210;2023-12-07T05:15:39;3.90;90.80
84294;DHT22;74463;51.182;3.210;2023-12-07T05:18:06;3.90;90.70
84294;DHT22;74463;51.182;3.210;2023-12-07T05:20:34;3.90;90.90
84294;DHT22;74463;51.182;3.210;2023-12-07T05:23:04;3.90;90.50
84294;DHT22;74463;51.182;3.210;2023-12-07T05:25:31;3.70;90.80
84294;DHT22;74463;51.182;3.210;2023-12-07T05:27:59;3.90;91.10
84294;DHT22;74463;51.182;3.210;2023-12-07T05:30:26;3.80;90.70
84294;DHT22;74463;51.182;3.210;2023-12-07T05:32:53;3.80;90.70
84294;DHT22;74463;51.182;3.210;2023-12-07T05:35:20;4.00;90.50
84294;DHT22;74463;51.182;3.210;2023-12-07T05:37:50;4.00;90.40
84294;DHT22;74463;51.182;3.210;2023-12-07T05:40:17;4.10;90.20
84294;DHT22;74463;51.182;3.210;2023-12-07T05:42:45;4.20;89.70
84294;DHT22;74463;51.182;3.210;2023-12-07T05:45:12;4.10;89.80
84294;DHT22;74463;51.182;3.210;2023-12-07T05:47:39;4.00;90.00
84294;DHT22;74463;51.182;3.210;2023-12-07T05:50:07;4.00;90.10
84294;DHT22;74463;51.182;3.210;2023-12-07T05:52:35;4.00;90.10
84294;DHT22;74463;51.182;3.210;2023-12-07T05:55:04;4.10;90.20
84294;DHT22;74463;51.182;3.210;2023-12-07T05:57:31;4.10;89.70
84294;DHT22;74463;51.182;3.210;2023-12-07T05:59:58;4.20;89.60
84294;DHT22;74463;51.182;3.210;2023-12-07T06:02:26;4.20;90.00
84294;DHT22;74463;51.182;3.210;2023-12-07T06:04:53;4.10;89.50
84294;DHT22;74463;51.182;3.210;2023-12-07T06:07:20;4.20;89.60
84294;DHT22;74463;51.182;3.210;2023-12-07T06:09:47;4.30;89.40
84294;DHT22;74463;51.182;3.210;2023-12-07T06:12:15;4.40;88.60
84294;DHT22;74463;51.182;3.210;2023-12-07T06:14:42;4.40;88.50
84294;DHT22;74463;51.182;3.210;2023-12-07T06:17:09;4.30;89.00
84294;DHT22;74463;51.182;3.210;2023-12-07T06:19:36;4.30;90.20
84294;DHT22;74463;51.182;3.210;2023-12-07T06:22:03;4.30;89.30
84294;DHT22;74463;51.182;3.210;2023-12-07T06:24:31;4.40;89.20
84294;DHT22;74463;51.182;3.210;2023-12-07T06:26:58;4.40;88.80
84294;DHT22;74463;51.182;3.210;2023-12-07T06:29:28;4.40;88.50
84294;DHT22;74463;51.182;3.210;2023-12-07T06:31:57;4.40;89.10
84294;DHT22;74463;51.182;3.210;2023-12-07T06:34:24;4.30;88.70
84294;DHT22;74463;51.182;3.210;2023-12-07T06:36:51;4.30;89.20
84294;DHT22;74463;51.182;3.210;2023-12-07T06:39:17;4.40;88.90
84294;DHT22;74463;51.182;3.210;2023-12-07T06:41:45;4.40;88.30
84294;DHT22;74463;51.182;3.210;2023-12-07T06:44:12;4.30;88.60
84294;DHT22;74463;51.182;3.210;2023-12-07T06:46:40;4.40;88.80
84294;DHT22;74463;51.182;3.210;2023-12-07T06:49:07;4.50;88.00
84294;DHT22;74463;51.182;3.210;2023-12-07T06:51:34;4.40;88.30
84294;DHT22;74463;51.182;3.210;2023-12-07T06:54:00;4.50;88.40
84294;DHT22;74463;51.182;3.210;2023-12-07T06:56:27;4.50;89.40
84294;DHT22;74463;51.182;3.210;2023-12-07T06:58:54;4.40;88.20
84294;DHT22;74463;51.182;3.210;2023-12-07T07:01:20;4.40;88.80
84294;DHT22;74463;51.182;3.210;2023-12-07T07:03:49;4.50;88.00
84294;DHT22;74463;51.182;3.210;2023-12-07T07:06:16;4.60;87.50
84294;DHT22;74463;51.182;3.210;2023-12-07T07:08:42;4.40;87.80
84294;DHT22;74463;51.182;3.210;2023-12-07T07:11:12;4.50;87.80
84294;DHT22;74463;51.182;3.210;2023-12-07T07:13:39;4.50;87.80
84294;DHT22;74463;51.182;3.210;2023-12-07T07:16:08;4.60;87.70
84294;DHT22;74463;51.182;3.210;2023-12-07T07:18:36;4.70;87.70
84294;DHT22;74463;51.182;3.210;2023-12-07T07:21:05;4.60;86.30
84294;DHT22;74463;51.182;3.210;2023-12-07T07:23:32;4.70;86.70
84294;DHT22;74463;51.182;3.210;2023-12-07T07:25:59;4.60;87.00
84294;DHT22;74463;51.182;3.210;2023-12-07T07:28:26;4.60;86.50
84294;DHT22;74463;51.182;3.210;2023-12-07T07:30:53;4.60;86.80
84294;DHT22;74463;51.182;3.210;2023-12-07T07:33:19;4.70;86.90
84294;DHT22;74463;51.182;3.210;2023-12-07T07:35:47;4.60;87.20
84294;DHT22;74463;51.182;3.210;2023-12-07T07:38:15;4.50;87.70
84294;DHT22;74463;51.182;3.210;2023-12-07T07:40:42;4.50;87.50
84294;DHT22;74463;51.182;3.210;2023-12-07T07:43:10;4.50;87.50
84294;DHT22;74463;51.182;3.210;2023-12-07T07:45:37;4.60;87.50
84294;DHT22;74463;51.182;3.210;2023-12-07T07:48:05;4.50;87.30
84294;DHT22;74463;51.182;3.210;2023-12-07T07:50:31;4.40;87.90
84294;DHT22;74463;51.182;3.210;2023-12-07T07:53:00;4.50;88.30
84294;DHT22;74463;51.182;3.210;2023-12-07T07:55:29;4.50;88.20
84294;DHT22;74463;51.182;3.210;2023-12-07T07:57:56;4.50;88.10
84294;DHT22;74463;51.182;3.210;2023-12-07T08:00:23;4.60;87.90
84294;DHT22;74463;51.182;3.210;2023-12-07T08:02:51;4.60;88.20
84294;DHT22;74463;51.182;3.210;2023-12-07T08:05:18;4.70;88.00
84294;DHT22;74463;51.182;3.210;2023-12-07T08:07:45;4.90;87.60
84294;DHT22;74463;51.182;3.210;2023-12-07T08:10:12;4.90;86.60
84294;DHT22;74463;51.182;3.210;2023-12-07T08:12:41;5.00;87.10
84294;DHT22;74463;51.182;3.210;2023-12-07T08:15:08;4.90;86.50
84294;DHT22;74463;51.182;3.210;2023-12-07T08:17:37;4.90;86.60
84294;DHT22;74463;51.182;3.210;2023-12-07T08:20:06;5.10;86.70
84294;DHT22;74463;51.182;3.210;2023-12-07T08:22:34;5.20;85.90
84294;DHT22;74463;51.182;3.210;2023-12-07T08:25:02;5.10;85.60
84294;DHT22;74463;51.182;3.210;2023-12-07T08:27:31;5.20;86.00
84294;DHT22;74463;51.182;3.210;2023-12-07T08:29:59;5.10;85.60
84294;DHT22;74463;51.182;3.210;2023-12-07T08:32:26;5.10;86.00
84294;DHT22;74463;51.182;3.210;2023-12-07T08:34:53;5.10;86.20
84294;DHT22;74463;51.182;3.210;2023-12-07T08:37:20;5.10;85.80
84294;DHT22;74463;51.182;3.210;2023-12-07T08:39:47;5.20;85.60
84294;DHT22;74463;51.182;3.210;2023-12-07T08:42:14;5.30;85.70
84294;DHT22;74463;51.182;3.210;2023-12-07T08:44:43;5.30;85.90
84294;DHT22;74463;51.182;3.210;2023-12-07T08:47:11;5.20;85.20
84294;DHT22;74463;51.182;3.210;2023-12-07T08:49:38;5.30;85.00
84294;DHT22;74463;51.182;3.210;2023-12-07T08:52:05;5.50;85.00
84294;DHT22;74463;51.182;3.210;2023-12-07T08:54:32;5.50;84.60
84294;DHT22;74463;51.182;3.210;2023-12-07T08:57:01;5.50;84.20
84294;DHT22;74463;51.182;3.210;2023-12-07T08:59:28;5.40;84.40
84294;DHT22;74463;51.182;3.210;2023-12-07T09:01:55;5.40;84.50
84294;DHT22;74463;51.182;3.210;2023-12-07T09:04:24;5.30;84.50
84294;DHT22;74463;51.182;3.210;2023-12-07T09:06:50;5.20;85.70
84294;DHT22;74463;51.182;3.210;2023-12-07T09:09:18;5.30;85.50
84294;DHT22;74463;51.182;3.210;2023-12-07T09:11:45;5.30;85.70
84294;DHT22;74463;51.182;3.210;2023-12-07T09:14:12;5.40;85.00
84294;DHT22;74463;51.182;3.210;2023-12-07T09:16:43;5.40;84.80
84294;DHT22;74463;51.182;3.210;2023-12-07T09:19:10;5.60;84.00
84294;DHT22;74463;51.182;3.210;2023-12-07T09:21:39;5.50;84.00
84294;DHT22;74463;51.182;3.210;2023-12-07T09:24:06;5.50;84.30
84294;DHT22;74463;51.182;3.210;2023-12-07T09:26:33;5.50;84.00
84294;DHT22;74463;51.182;3.210;2023-12-07T09:29:00;5.30;84.70
84294;DHT22;74463;51.182;3.210;2023-12-07T09:31:27;5.50;85.00
84294;DHT22;74463;51.182;3.210;2023-12-07T09:33:54;5.50;84.70
84294;DHT22;74463;51.182;3.210;2023-12-07T09:36:21;5.30;85.50
84294;DHT22;74463;51.182;3.210;2023-12-07T09:38:51;5.40;85.60
84294;DHT22;74463;51.182;3.210;2023-12-07T09:41:17;5.40;84.80
84294;DHT22;74463;51.182;3.210;2023-12-07T09:43:45;5.70;84.80
84294;DHT22;74463;51.182;3.210;2023-12-07T09:46:13;5.70;84.00
84294;DHT22;74463;51.182;3.210;2023-12-07T09:48:42;5.70;84.30
84294;DHT22;74463;51.182;3.210;2023-12-07T09:51:09;5.80;83.40
84294;DHT22;74463;51.182;3.210;2023-12-07T09:53:38;5.60;84.10
84294;DHT22;74463;51.182;3.210;2023-12-07T09:56:08;5.60;83.90
84294;DHT22;74463;51.182;3.210;2023-12-07T09:58:35;5.70;84.30
84294;DHT22;74463;51.182;3.210;2023-12-07T10:01:02;5.90;83.40
84294;DHT22;74463;51.182;3.210;2023-12-07T10:03:29;5.80;83.60
84294;DHT22;74463;51.182;3.210;2023-12-07T10:05:57;5.70;84.40
84294;DHT22;74463;51.182;3.210;2023-12-07T10:08:26;5.80;83.60
84294;DHT22;74463;51.182;3.210;2023-12-07T10:11:02;5.80;83.60
84294;DHT22;74463;51.182;3.210;2023-12-07T10:13:32;5.80;84.20
84294;DHT22;74463;51.182;3.210;2023-12-07T10:16:05;5.60;84.30
84294;DHT22;74463;51.182;3.210;2023-12-07T10:18:32;5.50;84.70
84294;DHT22;74463;51.182;3.210;2023-12-07T10:21:00;5.40;85.50
84294;DHT22;74463;51.182;3.210;2023-12-07T10:23:28;5.40;85.50
84294;DHT22;74463;51.182;3.210;2023-12-07T10:25:57;5.70;85.50
84294;DHT22;74463;51.182;3.210;2023-12-07T10:28:24;5.70;84.40
84294;DHT22;74463;51.182;3.210;2023-12-07T10:30:53;5.70;84.40
84294;DHT22;74463;51.182;3.210;2023-12-07T10:33:20;5.80;84.70
84294;DHT22;74463;51.182;3.210;2023-12-07T10:35:47;5.80;84.00
84294;DHT22;74463;51.182;3.210;2023-12-07T10:38:15;5.70;84.30
84294;DHT22;74463;51.182;3.210;2023-12-07T10:40:43;5.90;84.50
84294;DHT22;74463;51.182;3.210;2023-12-07T10:43:11;6.00;83.30
84294;DHT22;74463;51.182;3.210;2023-12-07T10:45:40;6.00;83.20
84294;DHT22;74463;51.182;3.210;2023-12-07T10:48:10;6.20;83.10
84294;DHT22;74463;51.182;3.210;2023-12-07T10:50:41;6.50;82.50
84294;DHT22;74463;51.182;3.210;2023-12-07T10:53:11;6.50;81.30
84294;DHT22;74463;51.182;3.210;2023-12-07T10:55:46;6.40;81.60
84294;DHT22;74463;51.182;3.210;2023-12-07T10:58:15;6.50;81.50
84294;DHT22;74463;51.182;3.210;2023-12-07T11:00:43;6.60;80.90
84294;DHT22;74463;51.182;3.210;2023-12-07T11:03:15;6.70;80.50
84294;DHT22;74463;51.182;3.210;2023-12-07T11:05:44;6.80;79.40
84294;DHT22;74463;51.182;3.210;2023-12-07T11:08:17;6.90;80.10
84294;DHT22;74463;51.182;3.210;2023-12-07T11:10:53;7.00;78.90
84294;DHT22;74463;51.182;3.210;2023-12-07T11:13:24;6.90;78.30
84294;DHT22;74463;51.182;3.210;2023-12-07T11:15:52;7.00;78.50
84294;DHT22;74463;51.182;3.210;2023-12-07T11:18:20;6.80;78.30
84294;DHT22;74463;51.182;3.210;2023-12-07T11:20:47;6.60;79.60
84294;DHT22;74463;51.182;3.210;2023-12-07T11:23:16;6.70;79.50
84294;DHT22;74463;51.182;3.210;2023-12-07T11:25:44;6.60;79.50
84294;DHT22;74463;51.182;3.210;2023-12-07T11:28:12;6.60;81.20
84294;DHT22;74463;51.182;3.210;2023-12-07T11:30:42;6.70;79.70
84294;DHT22;74463;51.182;3.210;2023-12-07T11:33:10;6.60;79.60
84294;DHT22;74463;51.182;3.210;2023-12-07T11:36:06;6.70;79.60
84294;DHT22;74463;51.182;3.210;2023-12-07T11:38:33;6.60;80.10
84294;DHT22;74463;51.182;3.210;2023-12-07T11:41:02;6.60;79.50
84294;DHT22;74463;51.182;3.210;2023-12-07T11:43:41;6.70;79.90
84294;DHT22;74463;51.182;3.210;2023-12-07T11:46:12;6.80;79.30
84294;DHT22;74463;51.182;3.210;2023-12-07T11:48:45;6.80;78.90
84294;DHT22;74463;51.182;3.210;2023-12-07T11:51:16;6.70;79.10
84294;DHT22;74463;51.182;3.210;2023-12-07T11:53:43;6.80;78.80
84294;DHT22;74463;51.182;3.210;2023-12-07T11:56:11;6.70;79.80
84294;DHT22;74463;51.182;3.210;2023-12-07T11:58:39;6.90;79.50
84294;DHT22;74463;51.182;3.210;2023-12-07T12:01:06;7.10;78.20
84294;DHT22;74463;51.182;3.210;2023-12-07T12:03:33;6.90;77.00
84294;DHT22;74463;51.182;3.210;2023-12-07T12:06:04;7.00;77.50
84294;DHT22;74463;51.182;3.210;2023-12-07T12:08:32;6.80;78.50
84294;DHT22;74463;51.182;3.210;2023-12-07T12:10:59;6.90;78.70
84294;DHT22;74463;51.182;3.210;2023-12-07T12:13:27;6.80;77.90
84294;DHT22;74463;51.182;3.210;2023-12-07T12:15:55;7.00;78.20
84294;DHT22;74463;51.182;3.210;2023-12-07T12:18:22;7.10;77.90
84294;DHT22;74463;51.182;3.210;2023-12-07T12:20:51;7.10;77.90
84294;DHT22;74463;51.182;3.210;2023-12-07T12:23:18;7.20;76.90
84294;DHT22;74463;51.182;3.210;2023-12-07T12:25:47;7.40;76.20
84294;DHT22;74463;51.182;3.210;2023-12-07T12:28:16;7.20;76.10
84294;DHT22;74463;51.182;3.210;2023-12-07T12:30:43;7.00;77.30
84294;DHT22;74463;51.182;3.210;2023-12-07T12:33:10;7.20;77.50
84294;DHT22;74463;51.182;3.210;2023-12-07T12:35:39;7.10;76.50
84294;DHT22;74463;51.182;3.210;2023-12-07T12:38:09;7.20;77.40
84294;DHT22;74463;51.182;3.210;2023-12-07T12:40:37;7.40;75.60
84294;DHT22;74463;51.182;3.210;2023-12-07T12:43:05;7.20;76.90
84294;DHT22;74463;51.182;3.210;2023-12-07T12:45:33;7.30;76.40
84294;DHT22;74463;51.182;3.210;2023-12-07T12:48:00;7.30;75.50
84294;DHT22;74463;51.182;3.210;2023-12-07T12:50:35;7.20;76.10
84294;DHT22;74463;51.182;3.210;2023-12-07T12:53:04;7.20;76.50
84294;DHT22;74463;51.182;3.210;2023-12-07T12:55:32;7.20;76.20
84294;DHT22;74463;51.182;3.210;2023-12-07T12:57:59;7.20;75.50
84294;DHT22;74463;51.182;3.210;2023-12-07T13:00:28;7.20;75.70
84294;DHT22;74463;51.182;3.210;2023-12-07T13:02:55;7.10;75.90
84294;DHT22;74463;51.182;3.210;2023-12-07T13:05:22;7.00;76.90
84294;DHT22;74463;51.182;3.210;2023-12-07T13:07:49;7.00;76.70
84294;DHT22;74463;51.182;3.210;2023-12-07T13:10:16;7.00;77.10
84294;DHT22;74463;51.182;3.210;2023-12-07T13:12:43;7.00;76.50
84294;DHT22;74463;51.182;3.210;2023-12-07T13:15:10;7.10;77.00
84294;DHT22;74463;51.182;3.210;2023-12-07T13:17:40;7.20;76.70
84294;DHT22;74463;51.182;3.210;2023-12-07T13:20:08;7.30;76.40
84294;DHT22;74463;51.182;3.210;2023-12-07T13:22:37;7.40;76.30
84294;DHT22;74463;51.182;3.210;2023-12-07T13:25:05;7.40;75.30
84294;DHT22;74463;51.182;3.210;2023-12-07T13:27:32;7.20;75.80
84294;DHT22;74463;51.182;3.210;2023-12-07T13:29:59;7.20;75.90
84294;DHT22;74463;51.182;3.210;2023-12-07T13:32:26;7.20;75.60
84294;DHT22;74463;51.182;3.210;2023-12-07T13:34:54;7.10;75.60
84294;DHT22;74463;51.182;3.210;2023-12-07T13:37:21;7.10;75.40
84294;DHT22;74463;51.182;3.210;2023-12-07T13:39:48;7.10;75.90
84294;DHT22;74463;51.182;3.210;2023-12-07T13:42:18;7.10;75.00
84294;DHT22;74463;51.182;3.210;2023-12-07T13:44:46;7.20;75.70
84294;DHT22;74463;51.182;3.210;2023-12-07T13:47:15;7.20;75.80
84294;DHT22;74463;51.182;3.210;2023-12-07T13:49:45;7.30;75.30
84294;DHT22;74463;51.182;3.210;2023-12-07T13:52:16;7.50;74.80
84294;DHT22;74463;51.182;3.210;2023-12-07T13:54:43;7.20;74.60
84294;DHT22;74463;51.182;3.210;2023-12-07T13:57:10;7.10;75.80
84294;DHT22;74463;51.182;3.210;2023-12-07T13:59:38;7.10;74.90
84294;DHT22;74463;51.182;3.210;2023-12-07T14:02:05;7.00;75.90
84294;DHT22;74463;51.182;3.210;2023-12-07T14:04:33;7.00;75.30
84294;DHT22;74463;51.182;3.210;2023-12-07T14:07:07;7.10;75.00
84294;DHT22;74463;51.182;3.210;2023-12-07T14:09:36;7.00;76.10
84294;DHT22;74463;51.182;3.210;2023-12-07T14:12:04;6.80;75.20
84294;DHT22;74463;51.182;3.210;2023-12-07T14:14:31;6.90;75.90
84294;DHT22;74463;51.182;3.210;2023-12-07T14:16:58;6.80;75.30
84294;DHT22;74463;51.182;3.210;2023-12-07T14:19:25;6.70;74.30
84294;DHT22;74463;51.182;3.210;2023-12-07T14:21:53;6.70;75.60
84294;DHT22;74463;51.182;3.210;2023-12-07T14:24:20;6.80;74.40
84294;DHT22;74463;51.182;3.210;2023-12-07T14:26:49;6.70;75.00
84294;DHT22;74463;51.182;3.210;2023-12-07T14:29:16;6.70;75.30
84294;DHT22;74463;51.182;3.210;2023-12-07T14:31:44;6.70;75.30
84294;DHT22;74463;51.182;3.210;2023-12-07T14:34:11;6.70;75.40
84294;DHT22;74463;51.182;3.210;2023-12-07T14:36:39;6.80;75.00
84294;DHT22;74463;51.182;3.210;2023-12-07T14:39:07;6.80;74.90
84294;DHT22;74463;51.182;3.210;2023-12-07T14:41:34;6.70;74.00
84294;DHT22;74463;51.182;3.210;2023-12-07T14:44:02;6.60;74.90
84294;DHT22;74463;51.182;3.210;2023-12-07T14:46:30;6.60;74.90
84294;DHT22;74463;51.182;3.210;2023-12-07T14:48:57;6.50;74.10
84294;DHT22;74463;51.182;3.210;2023-12-07T14:51:24;6.50;75.00
84294;DHT22;74463;51.182;3.210;2023-12-07T14:53:51;6.60;74.60
84294;DHT22;74463;51.182;3.210;2023-12-07T14:56:18;6.70;74.00
84294;DHT22;74463;51.182;3.210;2023-12-07T14:58:47;6.60;73.60
84294;DHT22;74463;51.182;3.210;2023-12-07T15:01:15;6.60;73.90
84294;DHT22;74463;51.182;3.210;2023-12-07T15:03:42;6.60;72.80
84294;DHT22;74463;51.182;3.210;2023-12-07T15:06:10;6.60;73.70
84294;DHT22;74463;51.182;3.210;2023-12-07T15:08:37;6.40;73.70
84294;DHT22;74463;51.182;3.210;2023-12-07T15:11:04;6.40;74.30
84294;DHT22;74463;51.182;3.210;2023-12-07T15:13:34;6.50;74.00
84294;DHT22;74463;51.182;3.210;2023-12-07T15:16:01;6.50;73.50
84294;DHT22;74463;51.182;3.210;2023-12-07T15:18:30;6.40;73.30
84294;DHT22;74463;51.182;3.210;2023-12-07T15:21:00;6.30;73.90
84294;DHT22;74463;51.182;3.210;2023-12-07T15:23:27;6.30;73.70
84294;DHT22;74463;51.182;3.210;2023-12-07T15:25:54;6.30;74.20
84294;DHT22;74463;51.182;3.210;2023-12-07T15:28:21;6.30;73.30
84294;DHT22;74463;51.182;3.210;2023-12-07T15:30:49;6.40;74.00
84294;DHT22;74463;51.182;3.210;2023-12-07T15:33:16;6.30;74.10
84294;DHT22;74463;51.182;3.210;2023-12-07T15:35:45;6.30;73.70
84294;DHT22;74463;51.182;3.210;2023-12-07T15:38:12;6.30;74.20
84294;DHT22;74463;51.182;3.210;2023-12-07T15:40:39;6.30;74.00
84294;DHT22;74463;51.182;3.210;2023-12-07T15:43:06;6.40;73.00
84294;DHT22;74463;51.182;3.210;2023-12-07T15:45:33;6.30;73.30
84294;DHT22;74463;51.182;3.210;2023-12-07T15:48:00;6.30;72.60